createdAt,value
2022-08-25T00:00:49.550Z,18.11
2022-08-25T00:01:56.050Z,18.12
2022-08-25T00:02:58.106Z,18.13
2022-08-25T00:04:02.040Z,18.14
2022-08-25T00:05:04.993Z,18.14
2022-08-25T00:06:08.616Z,18.13
2022-08-25T00:07:11.343Z,18.13
2022-08-25T00:08:13.142Z,18.13
2022-08-25T00:09:16.476Z,18.12
2022-08-25T00:10:18.321Z,18.09
2022-08-25T00:11:22.031Z,18.09
2022-08-25T00:12:23.825Z,18.05
2022-08-25T00:13:25.746Z,18.04
2022-08-25T00:14:30.214Z,18.02
2022-08-25T00:15:32.607Z,18.02
2022-08-25T00:16:35.050Z,18.03
2022-08-25T00:17:36.826Z,18.03
2022-08-25T00:18:39.652Z,18.03
2022-08-25T00:19:41.488Z,18.04
2022-08-25T00:20:43.341Z,18.06
2022-08-25T00:21:51.464Z,18.08
2022-08-25T00:22:53.321Z,18.07
2022-08-25T00:23:55.217Z,18.01
2022-08-25T00:24:57.028Z,17.94
2022-08-25T00:25:59.050Z,17.93
2022-08-25T00:27:02.079Z,17.93
2022-08-25T00:28:08.367Z,17.94
2022-08-25T00:29:10.886Z,17.92
2022-08-25T00:30:15.942Z,17.92
2022-08-25T00:31:20.282Z,17.93
2022-08-25T00:32:22.240Z,17.95
2022-08-25T00:33:24.453Z,17.98
2022-08-25T00:34:28.574Z,18.00
2022-08-25T00:35:30.500Z,17.99
2022-08-25T00:36:32.301Z,18.02
2022-08-25T00:37:34.130Z,18.04
2022-08-25T00:38:36.763Z,18.07
2022-08-25T00:39:39.955Z,18.07
2022-08-25T00:40:42.540Z,18.07
2022-08-25T00:41:44.497Z,18.08
2022-08-25T00:42:46.965Z,18.08
2022-08-25T00:43:53.876Z,18.10
2022-08-25T00:44:56.424Z,18.11
2022-08-25T00:45:58.454Z,18.12
2022-08-25T00:47:01.556Z,18.12
2022-08-25T00:48:03.830Z,18.11
2022-08-25T00:49:25.115Z,18.12
2022-08-25T00:50:28.390Z,18.14
2022-08-25T00:51:37.412Z,18.17
2022-08-25T00:52:43.377Z,18.17
2022-08-25T00:53:45.410Z,18.15
2022-08-25T00:54:49.969Z,18.10
2022-08-25T00:55:51.881Z,18.08
2022-08-25T00:56:54.204Z,18.06
2022-08-25T00:57:56.652Z,18.06
2022-08-25T00:59:00.091Z,18.06
2022-08-25T01:00:04.513Z,18.06
2022-08-25T01:01:06.537Z,18.08
2022-08-25T01:02:10.257Z,18.10
2022-08-25T01:03:16.330Z,18.12
2022-08-25T01:04:18.607Z,18.11
2022-08-25T01:05:21.619Z,18.13
2022-08-25T01:06:24.047Z,18.15
2022-08-25T01:07:26.011Z,18.17
2022-08-25T01:08:29.669Z,18.18
2022-08-25T01:09:34.207Z,18.21
2022-08-25T01:10:36.923Z,18.22
2022-08-25T01:11:38.782Z,18.21
2022-08-25T01:12:40.916Z,18.18
2022-08-25T01:13:48.173Z,18.18
2022-08-25T01:14:51.710Z,18.19
2022-08-25T01:15:55.370Z,18.19
2022-08-25T01:16:58.414Z,18.19
2022-08-25T01:18:01.352Z,18.19
2022-08-25T01:19:03.585Z,18.22
2022-08-25T01:20:05.506Z,18.22
2022-08-25T01:21:07.330Z,18.19
2022-08-25T01:22:10.846Z,18.19
2022-08-25T01:23:12.707Z,18.19
2022-08-25T01:24:34.744Z,18.16
2022-08-25T01:25:48.595Z,18.11
2022-08-25T01:26:50.442Z,18.09
2022-08-25T01:27:52.302Z,18.10
2022-08-25T01:29:13.343Z,18.12
2022-08-25T01:30:15.515Z,18.11
2022-08-25T01:31:24.046Z,18.10
2022-08-25T01:32:26.805Z,18.10
2022-08-25T01:33:28.591Z,18.10
2022-08-25T01:34:31.922Z,18.10
2022-08-25T01:35:34.353Z,18.11
2022-08-25T01:36:36.840Z,18.13
2022-08-25T01:37:38.730Z,18.15
2022-08-25T01:38:40.518Z,18.15
2022-08-25T01:39:43.204Z,18.14
2022-08-25T01:40:45.128Z,18.13
2022-08-25T01:41:51.461Z,18.14
2022-08-25T01:43:08.557Z,18.14
2022-08-25T01:44:16.484Z,18.13
2022-08-25T01:45:19.139Z,18.15
2022-08-25T01:46:21.092Z,18.16
2022-08-25T01:47:24.197Z,18.16
2022-08-25T01:48:27.009Z,18.13
2022-08-25T01:49:28.917Z,18.11
2022-08-25T01:50:31.346Z,18.10
2022-08-25T01:51:35.291Z,18.11
2022-08-25T01:52:46.527Z,18.11
2022-08-25T01:53:48.313Z,18.11
2022-08-25T01:54:50.199Z,18.11
2022-08-25T01:55:52.477Z,18.13
2022-08-25T01:56:54.280Z,18.14
2022-08-25T01:57:56.628Z,18.16
2022-08-25T01:58:58.413Z,18.16
2022-08-25T02:00:00.942Z,18.09
2022-08-25T02:01:05.837Z,18.06
2022-08-25T02:02:08.041Z,18.05
2022-08-25T02:03:15.750Z,18.06
2022-08-25T02:04:20.848Z,18.06
2022-08-25T02:05:23.985Z,18.04
2022-08-25T02:06:30.222Z,18.05
2022-08-25T02:07:32.752Z,18.07
2022-08-25T02:08:35.275Z,18.05
2022-08-25T02:09:38.072Z,18.06
2022-08-25T02:10:40.717Z,18.08
2022-08-25T02:11:43.807Z,18.07
2022-08-25T02:12:45.587Z,18.10
2022-08-25T02:13:47.872Z,18.10
2022-08-25T02:14:49.814Z,18.12
2022-08-25T02:15:53.233Z,18.12
2022-08-25T02:16:56.014Z,18.10
2022-08-25T02:17:58.152Z,18.10
2022-08-25T02:18:59.984Z,18.12
2022-08-25T02:20:01.799Z,18.12
2022-08-25T02:21:03.941Z,18.11
2022-08-25T02:22:05.877Z,18.11
2022-08-25T02:23:07.696Z,18.10
2022-08-25T02:24:09.803Z,18.09
2022-08-25T02:25:11.705Z,18.09
2022-08-25T02:26:17.069Z,18.09
2022-08-25T02:27:18.911Z,18.09
2022-08-25T02:28:21.662Z,18.10
2022-08-25T02:29:23.535Z,17.98
2022-08-25T02:30:25.468Z,17.96
2022-08-25T02:31:27.347Z,17.98
2022-08-25T02:32:29.264Z,18.01
2022-08-25T02:33:31.182Z,18.04
2022-08-25T02:34:33.039Z,18.06
2022-08-25T02:35:35.041Z,18.07
2022-08-25T02:36:38.233Z,18.08
2022-08-25T02:37:40.079Z,18.10
2022-08-25T02:38:42.020Z,18.12
2022-08-25T02:39:43.781Z,18.13
2022-08-25T02:40:45.643Z,18.15
2022-08-25T02:41:47.526Z,18.15
2022-08-25T02:42:50.248Z,18.15
2022-08-25T02:43:52.216Z,18.15
2022-08-25T02:44:54.323Z,18.15
2022-08-25T02:45:56.852Z,18.13
2022-08-25T02:46:58.883Z,18.11
2022-08-25T02:48:00.867Z,18.12
2022-08-25T02:49:03.231Z,18.12
2022-08-25T02:50:06.027Z,18.11
2022-08-25T02:51:09.075Z,18.11
2022-08-25T02:52:10.864Z,18.12
2022-08-25T02:53:12.692Z,18.11
2022-08-25T02:54:15.145Z,18.12
2022-08-25T02:55:17.218Z,18.11
2022-08-25T02:56:19.307Z,18.11
2022-08-25T02:57:21.632Z,18.14
2022-08-25T02:58:24.050Z,18.13
2022-08-25T02:59:25.863Z,18.14
2022-08-25T03:00:27.867Z,18.13
2022-08-25T03:01:30.288Z,18.13
2022-08-25T03:02:32.632Z,18.13
2022-08-25T03:03:39.203Z,18.13
2022-08-25T03:04:41.491Z,18.12
2022-08-25T03:05:43.371Z,18.09
2022-08-25T03:06:45.466Z,18.09
2022-08-25T03:07:47.304Z,18.09
2022-08-25T03:08:49.902Z,18.10
2022-08-25T03:09:51.726Z,18.11
2022-08-25T03:10:53.548Z,18.09
2022-08-25T03:11:55.321Z,18.10
2022-08-25T03:12:57.069Z,18.09
2022-08-25T03:13:58.904Z,18.09
2022-08-25T03:15:00.709Z,18.09
2022-08-25T03:16:03.849Z,18.11
2022-08-25T03:17:08.594Z,18.10
2022-08-25T03:18:12.128Z,18.11
2022-08-25T03:19:17.217Z,18.10
2022-08-25T03:20:19.900Z,18.11
2022-08-25T03:21:21.660Z,18.12
2022-08-25T03:22:23.427Z,18.13
2022-08-25T03:23:25.367Z,18.13
2022-08-25T03:24:27.358Z,18.13
2022-08-25T03:25:47.975Z,18.13
2022-08-25T03:26:56.164Z,18.11
2022-08-25T03:27:58.157Z,18.12
2022-08-25T03:29:01.189Z,18.13
2022-08-25T03:30:03.672Z,18.14
2022-08-25T03:31:05.717Z,18.12
2022-08-25T03:32:07.896Z,18.13
2022-08-25T03:33:09.772Z,18.15
2022-08-25T03:34:12.917Z,18.16
2022-08-25T03:35:15.198Z,18.13
2022-08-25T03:36:17.035Z,18.13
2022-08-25T03:37:19.592Z,18.13
2022-08-25T03:38:21.936Z,18.11
2022-08-25T03:39:24.765Z,18.12
2022-08-25T03:40:26.803Z,18.12
2022-08-25T03:41:29.840Z,18.13
2022-08-25T03:42:31.649Z,18.12
2022-08-25T03:43:33.487Z,18.11
2022-08-25T03:44:35.252Z,18.12
2022-08-25T03:45:40.744Z,18.12
2022-08-25T03:46:50.242Z,18.13
2022-08-25T03:47:52.909Z,18.12
2022-08-25T03:48:55.181Z,18.13
2022-08-25T03:49:57.000Z,18.13
2022-08-25T03:50:58.924Z,18.12
2022-08-25T03:52:03.513Z,18.11
2022-08-25T03:53:05.385Z,18.09
2022-08-25T03:54:07.372Z,18.08
2022-08-25T03:55:10.731Z,18.06
2022-08-25T03:56:12.602Z,18.04
2022-08-25T03:57:14.565Z,18.04
2022-08-25T03:58:17.313Z,18.03
2022-08-25T03:59:19.508Z,18.05
2022-08-25T04:00:22.347Z,18.07
2022-08-25T04:01:24.753Z,18.06
2022-08-25T04:02:27.023Z,18.06
2022-08-25T04:03:28.821Z,18.04
2022-08-25T04:04:31.327Z,18.04
2022-08-25T04:05:33.215Z,18.05
2022-08-25T04:06:36.086Z,18.05
2022-08-25T04:07:38.513Z,18.05
2022-08-25T04:08:40.319Z,18.06
2022-08-25T04:09:42.102Z,18.05
2022-08-25T04:10:43.908Z,18.05
2022-08-25T04:11:46.400Z,18.05
2022-08-25T04:12:51.279Z,18.05
2022-08-25T04:13:53.740Z,18.05
2022-08-25T04:14:55.613Z,18.07
2022-08-25T04:15:57.474Z,18.06
2022-08-25T04:16:59.399Z,18.07
2022-08-25T04:18:01.539Z,18.08
2022-08-25T04:19:05.212Z,18.09
2022-08-25T04:20:09.093Z,18.10
2022-08-25T04:21:11.413Z,18.09
2022-08-25T04:22:13.370Z,18.08
2022-08-25T04:23:15.273Z,18.03
2022-08-25T04:24:17.153Z,18.01
2022-08-25T04:25:18.976Z,17.96
2022-08-25T04:26:25.627Z,17.96
2022-08-25T04:27:27.551Z,17.98
2022-08-25T04:28:30.148Z,17.97
2022-08-25T04:29:32.847Z,17.98
2022-08-25T04:30:34.753Z,17.99
2022-08-25T04:31:37.251Z,17.99
2022-08-25T04:32:39.348Z,17.97
2022-08-25T04:33:42.087Z,17.95
2022-08-25T04:34:44.078Z,17.96
2022-08-25T04:35:50.073Z,17.92
2022-08-25T04:36:52.667Z,17.94
2022-08-25T04:37:54.691Z,17.95
2022-08-25T04:38:56.817Z,17.97
2022-08-25T04:39:58.654Z,17.99
2022-08-25T04:41:01.717Z,18.02
2022-08-25T04:42:03.673Z,18.05
2022-08-25T04:43:05.458Z,18.06
2022-08-25T04:44:07.445Z,18.08
2022-08-25T04:45:09.528Z,18.09
2022-08-25T04:46:13.298Z,18.11
2022-08-25T04:47:22.400Z,18.11
2022-08-25T04:48:24.365Z,18.10
2022-08-25T04:49:26.365Z,18.10
2022-08-25T04:50:28.265Z,18.11
2022-08-25T04:51:36.086Z,18.08
2022-08-25T04:52:37.901Z,18.07
2022-08-25T04:53:40.257Z,18.09
2022-08-25T04:54:42.844Z,18.09
2022-08-25T04:55:46.297Z,18.10
2022-08-25T04:56:50.864Z,18.11
2022-08-25T04:57:56.456Z,18.11
2022-08-25T04:59:01.942Z,18.12
2022-08-25T05:00:04.814Z,18.10
2022-08-25T05:01:11.603Z,18.13
2022-08-25T05:02:13.393Z,18.14
2022-08-25T05:03:15.293Z,18.15
2022-08-25T05:04:27.897Z,18.15
2022-08-25T05:05:31.410Z,18.13
2022-08-25T05:06:35.797Z,18.10
2022-08-25T05:07:37.757Z,18.06
2022-08-25T05:08:39.965Z,18.05
2022-08-25T05:09:41.810Z,18.06
2022-08-25T05:10:44.225Z,18.01
2022-08-25T05:11:46.075Z,17.97
2022-08-25T05:12:48.779Z,17.99
2022-08-25T05:13:51.853Z,18.00
2022-08-25T05:14:54.391Z,17.99
2022-08-25T05:15:58.295Z,17.99
2022-08-25T05:17:02.379Z,18.02
2022-08-25T05:18:04.267Z,18.03
2022-08-25T05:19:06.431Z,18.04
2022-08-25T05:20:08.602Z,18.03
2022-08-25T05:21:12.398Z,18.04
2022-08-25T05:22:14.218Z,18.05
2022-08-25T05:23:16.211Z,18.08
2022-08-25T05:24:18.050Z,18.08
2022-08-25T05:25:20.014Z,18.07
2022-08-25T05:26:22.205Z,18.10
2022-08-25T05:27:24.239Z,18.12
2022-08-25T05:28:26.178Z,18.12
2022-08-25T05:29:27.938Z,18.10
2022-08-25T05:30:30.216Z,18.08
2022-08-25T05:31:32.696Z,18.07
2022-08-25T05:32:34.846Z,18.08
2022-08-25T05:33:37.104Z,18.08
2022-08-25T05:34:39.022Z,18.07
2022-08-25T05:35:40.796Z,18.08
2022-08-25T05:36:43.893Z,18.07
2022-08-25T05:37:45.879Z,18.07
2022-08-25T05:38:47.725Z,18.09
2022-08-25T05:39:49.644Z,18.10
2022-08-25T05:40:58.447Z,18.12
2022-08-25T05:42:00.361Z,18.15
2022-08-25T05:43:02.104Z,18.12
2022-08-25T05:44:04.196Z,18.11
2022-08-25T05:45:06.743Z,18.15
2022-08-25T05:46:08.707Z,18.16
2022-08-25T05:47:10.530Z,18.12
2022-08-25T05:48:12.287Z,18.13
2022-08-25T05:49:14.122Z,18.12
2022-08-25T05:50:16.922Z,18.13
2022-08-25T05:51:19.987Z,18.14
2022-08-25T05:52:21.948Z,18.12
2022-08-25T05:53:24.228Z,18.16
2022-08-25T05:54:26.042Z,18.15
2022-08-25T05:55:27.906Z,18.18
2022-08-25T05:56:29.825Z,18.16
2022-08-25T05:57:32.794Z,18.18
2022-08-25T05:58:34.673Z,18.18
2022-08-25T05:59:36.429Z,18.22
2022-08-25T06:00:38.736Z,18.25
2022-08-25T06:01:58.986Z,18.27
2022-08-25T06:03:00.829Z,18.26
2022-08-25T06:04:02.902Z,18.24
2022-08-25T06:05:04.853Z,18.27
2022-08-25T06:06:07.494Z,18.27
2022-08-25T06:07:09.615Z,18.27
2022-08-25T06:08:11.510Z,18.22
2022-08-25T06:09:13.230Z,18.22
2022-08-25T06:10:15.905Z,18.22
2022-08-25T06:11:17.700Z,18.25
2022-08-25T06:12:21.562Z,18.24
2022-08-25T06:13:28.843Z,18.26
2022-08-25T06:14:30.857Z,18.28
2022-08-25T06:15:32.789Z,18.29
2022-08-25T06:16:34.829Z,18.30
2022-08-25T06:17:40.919Z,18.32
2022-08-25T06:18:42.732Z,18.30
2022-08-25T06:19:44.886Z,18.30
2022-08-25T06:20:47.577Z,18.33
2022-08-25T06:21:49.908Z,18.30
2022-08-25T06:22:51.778Z,18.31
2022-08-25T06:23:53.574Z,18.30
2022-08-25T06:24:56.075Z,18.31
2022-08-25T06:25:57.865Z,18.32
2022-08-25T06:26:59.733Z,18.35
2022-08-25T06:28:01.557Z,18.37
2022-08-25T06:29:03.707Z,18.40
2022-08-25T06:30:10.533Z,18.41
2022-08-25T06:31:12.994Z,18.40
2022-08-25T06:32:15.146Z,18.39
2022-08-25T06:33:17.009Z,18.38
2022-08-25T06:34:19.539Z,18.39
2022-08-25T06:35:25.612Z,18.42
2022-08-25T06:36:27.379Z,18.44
2022-08-25T06:37:29.367Z,18.45
2022-08-25T06:38:31.296Z,18.49
2022-08-25T06:39:33.104Z,18.49
2022-08-25T06:40:35.023Z,18.52
2022-08-25T06:41:37.342Z,18.52
2022-08-25T06:42:39.324Z,18.53
2022-08-25T06:43:48.017Z,18.52
2022-08-25T06:44:50.904Z,18.53
2022-08-25T06:45:52.698Z,18.51
2022-08-25T06:46:54.475Z,18.52
2022-08-25T06:47:57.964Z,18.55
2022-08-25T06:49:01.043Z,18.54
2022-08-25T06:50:04.216Z,18.55
2022-08-25T06:51:07.361Z,18.57
2022-08-25T06:52:09.414Z,18.59
2022-08-25T06:53:11.285Z,18.58
2022-08-25T06:54:13.598Z,18.61
2022-08-25T06:55:16.234Z,18.65
2022-08-25T06:56:19.263Z,18.64
2022-08-25T06:57:21.318Z,18.63
2022-08-25T06:58:23.171Z,18.66
2022-08-25T06:59:32.239Z,18.67
2022-08-25T07:00:34.461Z,18.67
2022-08-25T07:01:36.527Z,18.66
2022-08-25T07:02:41.053Z,18.69
2022-08-25T07:03:43.598Z,18.72
2022-08-25T07:04:45.575Z,18.76
2022-08-25T07:05:54.740Z,18.77
2022-08-25T07:06:56.474Z,18.78
2022-08-25T07:07:58.269Z,18.81
2022-08-25T07:09:00.298Z,18.82
2022-08-25T07:10:02.514Z,18.83
2022-08-25T07:11:08.503Z,18.83
2022-08-25T07:12:18.342Z,18.83
2022-08-25T07:13:20.116Z,18.84
2022-08-25T07:14:22.575Z,18.84
2022-08-25T07:15:24.403Z,18.85
2022-08-25T07:16:29.753Z,18.87
2022-08-25T07:17:32.853Z,18.83
2022-08-25T07:18:35.868Z,18.86
2022-08-25T07:19:37.819Z,18.89
2022-08-25T07:20:40.357Z,18.89
2022-08-25T07:21:46.023Z,18.92
2022-08-25T07:22:48.889Z,18.97
2022-08-25T07:23:50.996Z,19.03
2022-08-25T07:24:52.869Z,19.05
2022-08-25T07:25:55.179Z,19.09
2022-08-25T07:26:57.108Z,19.14
2022-08-25T07:27:59.210Z,19.15
2022-08-25T07:29:01.172Z,19.11
2022-08-25T07:30:03.013Z,19.10
2022-08-25T07:31:07.060Z,19.15
2022-08-25T07:32:11.931Z,19.16
2022-08-25T07:33:13.921Z,19.17
2022-08-25T07:34:34.845Z,19.18
2022-08-25T07:35:40.935Z,19.18
2022-08-25T07:36:45.998Z,19.19
2022-08-25T07:37:50.274Z,19.25
2022-08-25T07:38:52.137Z,19.27
2022-08-25T07:39:54.017Z,19.30
2022-08-25T07:41:03.526Z,19.36
2022-08-25T07:42:12.246Z,19.41
2022-08-25T07:43:14.133Z,19.44
2022-08-25T07:44:15.999Z,19.49
2022-08-25T07:45:20.956Z,19.52
2022-08-25T07:46:23.020Z,19.56
2022-08-25T07:47:24.815Z,19.52
2022-08-25T07:48:26.924Z,19.52
2022-08-25T07:49:35.674Z,19.55
2022-08-25T07:50:42.254Z,19.58
2022-08-25T07:52:04.271Z,19.62
2022-08-25T07:53:07.319Z,19.65
2022-08-25T07:54:09.470Z,19.72
2022-08-25T07:55:12.238Z,19.77
2022-08-25T07:56:19.804Z,19.80
2022-08-25T07:57:22.631Z,19.80
2022-08-25T07:58:24.561Z,19.85
2022-08-25T07:59:26.320Z,19.82
2022-08-25T08:00:30.459Z,19.80
2022-08-25T08:01:32.377Z,19.80
2022-08-25T08:02:35.510Z,19.79
2022-08-25T08:03:50.163Z,19.81
2022-08-25T08:04:53.733Z,19.86
2022-08-25T08:05:56.791Z,19.87
2022-08-25T08:06:58.614Z,19.89
2022-08-25T08:08:00.682Z,19.91
2022-08-25T08:09:03.290Z,19.93
2022-08-25T08:10:37.100Z,19.88
2022-08-25T08:11:30.401Z,19.96
2022-08-25T08:12:34.428Z,20.04
2022-08-25T08:13:41.215Z,20.12
2022-08-25T08:14:45.074Z,20.17
2022-08-25T08:15:48.576Z,20.18
2022-08-25T08:16:50.677Z,20.23
2022-08-25T08:17:52.646Z,20.22
2022-08-25T08:18:54.852Z,20.22
2022-08-25T08:19:57.215Z,20.23
2022-08-25T08:20:59.042Z,20.30
2022-08-25T08:22:02.386Z,20.32
2022-08-25T08:23:04.578Z,20.37
2022-08-25T08:24:14.893Z,20.38
2022-08-25T08:25:29.565Z,20.31
2022-08-25T08:26:57.678Z,20.29
2022-08-25T08:27:55.313Z,20.28
2022-08-25T08:28:57.214Z,20.27
2022-08-25T08:29:59.878Z,20.27
2022-08-25T08:31:02.747Z,20.26
2022-08-25T08:32:06.053Z,20.27
2022-08-25T08:33:19.620Z,20.31
2022-08-25T08:34:24.951Z,20.31
2022-08-25T08:35:27.078Z,20.32
2022-08-25T08:36:28.998Z,20.31
2022-08-25T08:37:32.283Z,20.33
2022-08-25T08:38:36.407Z,20.31
2022-08-25T08:39:38.827Z,20.28
2022-08-25T08:41:05.925Z,20.25
2022-08-25T08:42:19.940Z,20.26
2022-08-25T08:43:25.103Z,20.27
2022-08-25T08:44:38.211Z,20.24
2022-08-25T08:45:58.100Z,20.23
2022-08-25T08:47:11.497Z,20.23
2022-08-25T08:48:13.274Z,20.26
2022-08-25T08:49:27.673Z,20.27
2022-08-25T08:50:35.065Z,20.30
2022-08-25T08:51:43.956Z,20.38
2022-08-25T08:52:55.170Z,20.40
2022-08-25T08:54:00.292Z,20.43
2022-08-25T08:55:06.563Z,20.46
2022-08-25T08:56:31.812Z,20.54
2022-08-25T08:57:36.025Z,20.64
2022-08-25T08:58:50.394Z,20.68
2022-08-25T08:59:55.784Z,20.73
2022-08-25T09:01:02.089Z,20.81
2022-08-25T09:02:06.872Z,20.89
2022-08-25T09:03:39.748Z,20.96
2022-08-25T09:04:41.643Z,21.04
2022-08-25T09:05:48.663Z,21.11
2022-08-25T09:06:51.085Z,21.13
2022-08-25T09:07:58.304Z,21.12
2022-08-25T09:09:02.618Z,21.11
2022-08-25T09:10:10.424Z,21.08
2022-08-25T09:11:18.829Z,21.07
2022-08-25T09:12:31.880Z,21.08
2022-08-25T09:13:54.160Z,21.09
2022-08-25T09:15:01.665Z,21.11
2022-08-25T09:16:34.169Z,21.09
2022-08-25T09:17:56.639Z,21.15
2022-08-25T09:19:08.643Z,21.26
2022-08-25T09:20:18.631Z,21.30
2022-08-25T09:21:21.102Z,21.29
2022-08-25T09:22:35.910Z,21.27
2022-08-25T09:24:01.265Z,21.28
2022-08-25T09:25:52.628Z,21.29
2022-08-25T09:27:11.922Z,21.40
2022-08-25T09:28:21.291Z,21.52
2022-08-25T09:29:25.341Z,21.65
2022-08-25T09:30:28.287Z,21.73
2022-08-25T09:31:39.074Z,21.83
2022-08-25T09:32:52.352Z,21.96
2022-08-25T09:33:57.472Z,22.09
2022-08-25T09:34:59.959Z,22.14
2022-08-25T09:36:04.605Z,22.14
2022-08-25T09:37:08.299Z,22.14
2022-08-25T09:38:12.094Z,22.13
2022-08-25T09:39:14.162Z,22.11
2022-08-25T09:40:16.104Z,22.10
2022-08-25T09:41:19.517Z,22.08
2022-08-25T09:42:23.919Z,22.08
2022-08-25T09:43:37.256Z,22.06
2022-08-25T09:44:43.918Z,22.05
2022-08-25T09:45:48.953Z,22.04
2022-08-25T09:46:57.380Z,22.03
2022-08-25T09:47:59.231Z,22.02
2022-08-25T09:49:13.826Z,22.06
2022-08-25T09:50:20.370Z,22.17
2022-08-25T09:51:42.571Z,22.31
2022-08-25T09:52:46.189Z,22.43
2022-08-25T09:53:55.377Z,22.53
2022-08-25T09:54:58.204Z,22.62
2022-08-25T09:56:04.997Z,22.69
2022-08-25T09:57:08.722Z,22.73
2022-08-25T09:58:16.130Z,22.73
2022-08-25T09:59:19.737Z,22.75
2022-08-25T10:00:24.256Z,22.81
2022-08-25T10:01:26.123Z,22.86
2022-08-25T10:02:33.878Z,23.02
2022-08-25T10:03:54.214Z,23.15
2022-08-25T10:04:56.173Z,23.26
2022-08-25T10:05:58.113Z,23.38
2022-08-25T10:07:01.004Z,23.49
2022-08-25T10:08:05.214Z,23.60
2022-08-25T10:09:08.007Z,23.69
2022-08-25T10:10:23.218Z,23.79
2022-08-25T10:11:33.813Z,23.85
2022-08-25T10:12:42.753Z,23.82
2022-08-25T10:13:47.131Z,23.90
2022-08-25T10:14:49.150Z,24.00
2022-08-25T10:16:04.785Z,24.07
2022-08-25T10:17:29.552Z,24.22
2022-08-25T10:18:31.873Z,24.31
2022-08-25T10:19:34.102Z,24.39
2022-08-25T10:20:36.014Z,24.46
2022-08-25T10:21:44.640Z,24.55
2022-08-25T10:22:48.192Z,24.75
2022-08-25T10:23:52.981Z,24.91
2022-08-25T10:24:56.031Z,24.99
2022-08-25T10:26:03.540Z,25.05
2022-08-25T10:27:06.557Z,25.00
2022-08-25T10:28:14.208Z,24.94
2022-08-25T10:29:34.924Z,24.83
2022-08-25T10:30:45.309Z,24.74
2022-08-25T10:31:53.038Z,24.69
2022-08-25T10:33:01.778Z,24.65
2022-08-25T10:34:24.674Z,24.59
2022-08-25T10:35:46.733Z,24.57
2022-08-25T10:36:53.195Z,24.54
2022-08-25T10:38:00.628Z,24.50
2022-08-25T10:39:03.175Z,24.48
2022-08-25T10:40:23.336Z,24.47
2022-08-25T10:41:31.765Z,24.43
2022-08-25T10:42:53.846Z,24.42
2022-08-25T10:44:05.694Z,24.41
2022-08-25T10:45:25.809Z,24.39
2022-08-25T10:46:33.810Z,24.40
2022-08-25T10:47:51.605Z,24.37
2022-08-25T10:48:59.024Z,24.39
2022-08-25T10:50:09.153Z,24.39
2022-08-25T10:51:20.434Z,24.39
2022-08-25T10:52:25.476Z,24.37
2022-08-25T10:53:36.362Z,24.38
2022-08-25T10:54:52.986Z,24.37
2022-08-25T10:56:03.769Z,24.34
2022-08-25T10:57:21.765Z,24.32
2022-08-25T10:58:42.150Z,24.31
2022-08-25T10:59:58.117Z,24.29
2022-08-25T11:01:09.148Z,24.30
2022-08-25T11:02:16.737Z,24.32
2022-08-25T11:03:25.610Z,24.32
2022-08-25T11:04:40.420Z,24.33
2022-08-25T11:05:46.056Z,24.38
2022-08-25T11:07:13.879Z,24.45
2022-08-25T11:08:36.057Z,24.79
2022-08-25T11:09:40.515Z,25.10
2022-08-25T11:10:53.476Z,25.29
2022-08-25T11:12:01.394Z,25.48
2022-08-25T11:13:07.881Z,25.63
2022-08-25T11:14:18.583Z,25.78
2022-08-25T11:15:29.815Z,25.90
2022-08-25T11:16:37.323Z,25.94
2022-08-25T11:17:42.393Z,26.04
2022-08-25T11:18:50.774Z,26.14
2022-08-25T11:19:55.734Z,26.23
2022-08-25T11:20:58.621Z,26.38
2022-08-25T11:22:26.599Z,26.46
2022-08-25T11:23:43.590Z,26.45
2022-08-25T11:24:45.340Z,26.29
2022-08-25T11:25:57.677Z,26.22
2022-08-25T11:27:00.082Z,26.12
2022-08-25T11:28:20.891Z,26.01
2022-08-25T11:29:28.543Z,25.90
2022-08-25T11:30:32.578Z,25.83
2022-08-25T11:31:39.190Z,25.77
2022-08-25T11:32:45.994Z,25.74
2022-08-25T11:33:49.905Z,25.78
2022-08-25T11:34:53.010Z,25.77
2022-08-25T11:35:57.231Z,25.79
2022-08-25T11:37:04.314Z,25.79
2022-08-25T11:38:25.199Z,25.84
2022-08-25T11:39:34.849Z,26.07
2022-08-25T11:40:39.596Z,26.24
2022-08-25T11:41:49.563Z,26.41
2022-08-25T11:43:01.138Z,26.57
2022-08-25T11:44:02.910Z,26.74
2022-08-25T11:45:23.279Z,26.90
2022-08-25T11:46:40.342Z,27.10
2022-08-25T11:47:42.139Z,27.26
2022-08-25T11:49:02.971Z,27.32
2022-08-25T11:50:07.762Z,27.47
2022-08-25T11:51:30.912Z,27.54
2022-08-25T11:52:38.440Z,27.59
2022-08-25T11:53:44.293Z,27.48
2022-08-25T11:54:48.663Z,27.41
2022-08-25T11:55:52.498Z,27.37
2022-08-25T11:57:05.276Z,27.40
2022-08-25T11:58:22.481Z,27.40
2022-08-25T11:59:43.186Z,27.45
2022-08-25T12:00:45.061Z,27.50
2022-08-25T12:01:55.920Z,27.58
2022-08-25T12:03:01.395Z,27.63
2022-08-25T12:04:27.033Z,27.70
2022-08-25T12:05:41.628Z,27.72
2022-08-25T12:07:02.746Z,27.77
2022-08-25T12:08:26.442Z,27.89
2022-08-25T12:09:28.666Z,28.00
2022-08-25T12:10:51.951Z,28.11
2022-08-25T12:11:58.507Z,28.20
2022-08-25T12:13:08.130Z,28.34
2022-08-25T12:14:25.077Z,28.38
2022-08-25T12:15:42.136Z,28.44
2022-08-25T12:17:00.666Z,28.35
2022-08-25T12:18:08.515Z,28.22
2022-08-25T12:19:29.508Z,28.13
2022-08-25T12:20:50.650Z,28.21
2022-08-25T12:21:53.720Z,28.12
2022-08-25T12:22:57.532Z,28.01
2022-08-25T12:24:02.063Z,27.95
2022-08-25T12:25:09.221Z,27.81
2022-08-25T12:26:29.622Z,27.69
2022-08-25T12:27:33.879Z,27.62
2022-08-25T12:28:52.676Z,27.58
2022-08-25T12:30:15.953Z,27.49
2022-08-25T12:31:24.903Z,27.42
2022-08-25T12:32:57.400Z,27.45
2022-08-25T12:34:10.803Z,27.50
2022-08-25T12:35:23.312Z,27.50
2022-08-25T12:36:33.277Z,27.51
2022-08-25T12:37:36.033Z,27.47
2022-08-25T12:38:43.696Z,27.44
2022-08-25T12:39:50.181Z,27.40
2022-08-25T12:40:51.986Z,27.38
2022-08-25T12:41:56.562Z,27.38
2022-08-25T12:43:06.984Z,27.41
2022-08-25T12:44:16.062Z,27.48
2022-08-25T12:45:17.941Z,27.61
2022-08-25T12:46:29.914Z,27.78
2022-08-25T12:47:34.567Z,27.85
2022-08-25T12:48:36.317Z,27.92
2022-08-25T12:49:39.588Z,27.88
2022-08-25T12:50:50.627Z,27.87
2022-08-25T12:51:57.339Z,27.96
2022-08-25T12:53:07.753Z,28.08
2022-08-25T12:54:19.015Z,28.21
2022-08-25T12:55:26.483Z,28.42
2022-08-25T12:56:41.291Z,28.42
2022-08-25T12:57:59.044Z,28.44
2022-08-25T12:59:22.274Z,28.36
2022-08-25T13:00:37.738Z,28.22
2022-08-25T13:01:52.068Z,28.21
2022-08-25T13:03:14.276Z,28.20
2022-08-25T13:04:34.447Z,28.22
2022-08-25T13:05:51.490Z,28.32
2022-08-25T13:07:13.219Z,28.45
2022-08-25T13:08:33.720Z,28.63
2022-08-25T13:09:59.152Z,28.81
2022-08-25T13:11:20.362Z,29.02
2022-08-25T13:12:27.339Z,29.26
2022-08-25T13:13:36.464Z,29.40
2022-08-25T13:14:44.622Z,29.24
2022-08-25T13:15:48.806Z,29.05
2022-08-25T13:16:58.142Z,29.02
2022-08-25T13:18:17.680Z,29.10
2022-08-25T13:19:21.179Z,28.97
2022-08-25T13:20:24.115Z,28.86
2022-08-25T13:21:31.016Z,28.79
2022-08-25T13:22:33.397Z,28.71
2022-08-25T13:23:38.154Z,28.67
2022-08-25T13:24:41.881Z,28.70
2022-08-25T13:25:49.041Z,28.66
2022-08-25T13:26:53.702Z,28.60
2022-08-25T13:27:56.974Z,28.60
2022-08-25T13:29:09.448Z,28.61
2022-08-25T13:30:28.826Z,28.66
2022-08-25T13:31:31.303Z,28.81
2022-08-25T13:32:35.666Z,28.93
2022-08-25T13:33:37.759Z,29.02
2022-08-25T13:34:43.095Z,29.09
2022-08-25T13:36:12.060Z,29.24
2022-08-25T13:37:31.183Z,29.38
2022-08-25T13:38:33.314Z,29.48
2022-08-25T13:41:03.375Z,29.49
2022-08-25T13:42:16.401Z,29.37
2022-08-25T13:43:18.298Z,29.39
2022-08-25T13:44:31.187Z,29.51
2022-08-25T13:45:41.264Z,29.65
2022-08-25T13:46:45.565Z,29.76
2022-08-25T13:47:48.567Z,29.85
2022-08-25T13:49:06.143Z,29.86
2022-08-25T13:50:19.964Z,30.01
2022-08-25T13:51:24.056Z,30.05
2022-08-25T13:52:33.272Z,29.82
2022-08-25T13:53:35.388Z,29.57
2022-08-25T13:54:41.075Z,29.54
2022-08-25T13:55:52.336Z,29.55
2022-08-25T13:56:54.897Z,29.61
2022-08-25T13:58:01.458Z,29.57
2022-08-25T13:59:06.994Z,29.49
2022-08-25T14:00:12.188Z,29.56
2022-08-25T14:01:48.124Z,29.58
2022-08-25T14:02:51.450Z,29.54
2022-08-25T14:03:54.634Z,29.37
2022-08-25T14:04:56.539Z,29.22
2022-08-25T14:06:19.188Z,29.15
2022-08-25T14:07:27.216Z,29.29
2022-08-25T14:08:40.333Z,29.43
2022-08-25T14:09:53.843Z,29.55
2022-08-25T14:11:14.672Z,29.67